Time;durP1;ratioP1;P1;durP2;ratioP2;P2;SDS_P1;SDS_P2;PMS_P1;PMS_P2;Temp;Humidity;BMP_temperature;BMP_pressure;BME280_temperature;BME280_humidity;BME280_pressure;Samples;Min_cycle;Max_cycle;Signal;HPM_P1;HPM_P2
2023/09/06 00:01:33;;;;;;;3.53;3.22;;;18.40;99.90;;;;;;5119693;27;20042;-63
2023/09/06 00:03:58;;;;;;;3.33;3.03;;;18.30;99.90;;;;;;5134730;27;20043;-65
2023/09/06 00:06:24;;;;;;;3.30;3.00;;;18.40;99.90;;;;;;5117192;27;20477;-64
2023/09/06 00:08:50;;;;;;;3.38;3.05;;;18.30;99.90;;;;;;5118471;27;20031;-65
2023/09/06 00:11:16;;;;;;;5.45;3.45;;;18.20;99.90;;;;;;5132897;27;20451;-64
2023/09/06 00:13:42;;;;;;;5.70;3.22;;;18.20;99.90;;;;;;5114240;27;20126;-64
2023/09/06 00:16:07;;;;;;;3.35;3.00;;;18.20;99.90;;;;;;5125839;27;20070;-65
2023/09/06 00:18:33;;;;;;;3.85;3.17;;;18.10;99.90;;;;;;5134842;27;20477;-65
2023/09/06 00:20:59;;;;;;;3.60;3.30;;;18.10;99.90;;;;;;5128679;27;20046;-64
2023/09/06 00:23:25;;;;;;;3.53;2.97;;;18.10;99.90;;;;;;5131766;27;20075;-66
2023/09/06 00:25:52;;;;;;;4.55;3.10;;;18.00;99.90;;;;;;5151671;27;20031;-63
2023/09/06 00:28:23;;;;;;;3.63;3.22;;;18.00;99.90;;;;;;5135915;27;20089;-65
2023/09/06 00:30:50;;;;;;;4.10;3.70;;;18.00;99.90;;;;;;5113849;27;20031;-64
2023/09/06 00:33:16;;;;;;;4.75;3.40;;;18.00;99.90;;;;;;5132671;27;20042;-63
2023/09/06 00:35:42;;;;;;;4.10;3.70;;;18.00;99.90;;;;;;5118911;27;20413;-64
2023/09/06 00:38:08;;;;;;;4.88;4.00;;;18.00;99.90;;;;;;5117814;27;20100;-64
2023/09/06 00:40:36;;;;;;;4.53;3.95;;;17.90;99.90;;;;;;5113976;27;20053;-62
2023/09/06 00:43:03;;;;;;;5.15;4.28;;;18.00;99.90;;;;;;5133951;27;20398;-64
2023/09/06 00:45:36;;;;;;;5.00;4.40;;;18.00;99.90;;;;;;5130422;27;20498;-64
2023/09/06 00:48:05;;;;;;;5.63;4.30;;;18.10;99.90;;;;;;5125439;27;20474;-64
2023/09/06 00:50:33;;;;;;;6.05;4.43;;;18.10;99.90;;;;;;5126727;27;20043;-65
2023/09/06 00:52:59;;;;;;;6.22;4.38;;;18.10;99.90;;;;;;5113824;27;20052;-63
2023/09/06 00:55:26;;;;;;;5.07;4.57;;;18.20;99.90;;;;;;5113800;27;20027;-63
2023/09/06 00:57:51;;;;;;;4.45;4.03;;;18.20;99.90;;;;;;5117250;27;20062;-64
2023/09/06 01:00:17;;;;;;;4.50;4.10;;;18.20;99.90;;;;;;5114078;27;20081;-64
2023/09/06 01:02:44;;;;;;;6.72;4.60;;;18.30;99.90;;;;;;5113309;27;20041;-64
2023/09/06 01:05:11;;;;;;;6.53;4.38;;;18.30;99.90;;;;;;5123335;27;20043;-64
2023/09/06 01:07:38;;;;;;;4.80;4.30;;;18.30;99.90;;;;;;5113321;27;20121;-64
2023/09/06 01:10:04;;;;;;;5.95;4.20;;;18.30;99.90;;;;;;5118513;27;20039;-64
2023/09/06 01:12:30;;;;;;;5.10;4.15;;;18.30;99.90;;;;;;5100259;27;20114;-65
2023/09/06 01:14:56;;;;;;;4.57;4.03;;;18.20;99.90;;;;;;5133493;27;20544;-63
2023/09/06 01:17:26;;;;;;;5.72;3.97;;;18.20;99.90;;;;;;5132485;27;20126;-63
2023/09/06 01:19:57;;;;;;;7.35;4.20;;;18.20;99.90;;;;;;5116343;27;20051;-64
2023/09/06 01:22:35;;;;;;;5.13;4.10;;;18.20;99.90;;;;;;5113388;27;20067;-63
2023/09/06 01:25:02;;;;;;;8.75;3.70;;;18.10;99.90;;;;;;5116900;27;20051;-64
2023/09/06 01:27:28;;;;;;;4.10;3.70;;;18.10;99.90;;;;;;5112435;27;20047;-65
2023/09/06 01:29:54;;;;;;;4.90;3.97;;;18.10;99.90;;;;;;5140369;27;20038;-64
2023/09/06 01:32:19;;;;;;;9.20;3.70;;;18.10;99.90;;;;;;5114561;27;20045;-64
2023/09/06 01:34:45;;;;;;;4.00;3.67;;;18.00;99.90;;;;;;5116311;27;20042;-64
2023/09/06 01:37:10;;;;;;;7.10;3.80;;;17.90;99.90;;;;;;5133452;27;20042;-63
2023/09/06 01:39:36;;;;;;;4.80;3.90;;;17.90;99.90;;;;;;5122061;27;20115;-63
2023/09/06 01:42:02;;;;;;;5.85;4.25;;;17.90;99.90;;;;;;5117023;27;20046;-64
2023/09/06 01:44:31;;;;;;;4.07;3.67;;;17.90;99.90;;;;;;5112567;27;20035;-64
2023/09/06 01:46:57;;;;;;;5.68;3.95;;;17.90;99.90;;;;;;5128403;27;20043;-64
2023/09/06 01:49:23;;;;;;;4.57;4.13;;;17.90;99.90;;;;;;5115072;27;20104;-65
2023/09/06 01:51:48;;;;;;;5.22;3.95;;;17.90;99.90;;;;;;5123010;27;20031;-65
2023/09/06 01:54:14;;;;;;;5.88;4.25;;;17.90;99.90;;;;;;5133521;27;20038;-63
2023/09/06 01:56:41;;;;;;;4.88;4.03;;;17.90;99.90;;;;;;5147526;27;20088;-64
2023/09/06 01:59:06;;;;;;;6.15;4.65;;;17.90;99.90;;;;;;5117945;27;20543;-63
2023/09/06 02:01:32;;;;;;;5.60;4.22;;;17.90;99.90;;;;;;5130780;27;20477;-63
2023/09/06 02:03:59;;;;;;;5.47;4.57;;;17.90;99.90;;;;;;5133130;27;20046;-63
2023/09/06 02:06:24;;;;;;;5.05;3.75;;;17.90;99.90;;;;;;5122333;27;20458;-64
2023/09/06 02:08:50;;;;;;;4.72;4.22;;;17.90;99.90;;;;;;5117282;27;20074;-64
2023/09/06 02:11:16;;;;;;;7.40;3.95;;;17.90;99.90;;;;;;5095808;28;20047;-64
2023/09/06 02:13:41;;;;;;;4.95;4.45;;;17.90;99.90;;;;;;5128959;27;20382;-65
2023/09/06 02:16:07;;;;;;;4.63;4.07;;;17.90;99.90;;;;;;5115704;27;20061;-64
2023/09/06 02:18:33;;;;;;;4.28;3.78;;;17.90;99.90;;;;;;5140395;27;20039;-63
2023/09/06 02:20:59;;;;;;;5.25;4.00;;;17.90;99.90;;;;;;5112224;27;20046;-65
2023/09/06 02:23:24;;;;;;;4.28;3.88;;;17.80;99.90;;;;;;5107567;27;20061;-64
2023/09/06 02:25:50;;;;;;;5.70;3.95;;;17.80;99.90;;;;;;5132547;27;20097;-64
2023/09/06 02:28:17;;;;;;;5.05;4.55;;;17.80;99.90;;;;;;5131885;27;20520;-65
2023/09/06 02:30:43;;;;;;;5.28;4.15;;;17.70;99.90;;;;;;5097652;27;20047;-63
2023/09/06 02:33:12;;;;;;;6.15;4.68;;;17.70;99.90;;;;;;5115558;27;20041;-65
2023/09/06 02:35:40;;;;;;;5.68;4.80;;;17.60;99.90;;;;;;5114472;27;20074;-64
2023/09/06 02:38:09;;;;;;;4.82;4.03;;;17.50;99.90;;;;;;5113529;27;20103;-63
2023/09/06 02:40:35;;;;;;;6.28;4.68;;;17.40;99.90;;;;;;5116816;27;20449;-65
2023/09/06 02:43:04;;;;;;;4.90;4.28;;;17.40;99.90;;;;;;5112105;27;20031;-64
2023/09/06 02:45:36;;;;;;;4.40;4.00;;;17.30;99.90;;;;;;5114521;27;20058;-63
2023/09/06 02:48:15;;;;;;;4.25;3.90;;;17.20;99.90;;;;;;5112309;27;20531;-65
2023/09/06 02:50:41;;;;;;;4.68;4.10;;;17.20;99.90;;;;;;5125318;27;20042;-63
2023/09/06 02:53:19;;;;;;;4.72;4.30;;;17.10;99.90;;;;;;5112250;27;20417;-65
2023/09/06 02:55:51;;;;;;;4.97;4.35;;;17.10;99.90;;;;;;5122623;27;20485;-64
2023/09/06 02:58:23;;;;;;;5.22;4.20;;;17.10;99.90;;;;;;5114307;27;20042;-63
2023/09/06 03:00:55;;;;;;;6.15;4.07;;;17.10;99.90;;;;;;5133756;27;20035;-65
2023/09/06 03:03:21;;;;;;;5.47;4.53;;;17.10;99.90;;;;;;5147721;27;20496;-64
2023/09/06 03:05:47;;;;;;;5.53;4.22;;;17.00;99.90;;;;;;5127859;27;20175;-64
2023/09/06 03:08:13;;;;;;;4.95;4.43;;;17.00;99.90;;;;;;5133233;27;20114;-62
2023/09/06 03:10:40;;;;;;;5.90;4.35;;;16.90;99.90;;;;;;5135664;27;20038;-65
2023/09/06 03:13:08;;;;;;;4.82;4.20;;;16.90;99.90;;;;;;5138303;27;20537;-65
2023/09/06 03:15:35;;;;;;;4.80;4.40;;;16.90;99.90;;;;;;5134595;27;20035;-63
2023/09/06 03:18:02;;;;;;;6.75;4.95;;;16.90;99.90;;;;;;5115654;27;20397;-62
2023/09/06 03:20:33;;;;;;;5.72;5.15;;;16.90;99.90;;;;;;5118773;27;20043;-63
2023/09/06 03:23:17;;;;;;;6.78;4.93;;;16.90;99.90;;;;;;5112074;28;20509;-65
2023/09/06 03:25:48;;;;;;;6.68;5.22;;;17.00;99.90;;;;;;5115894;27;20054;-64
2023/09/06 03:28:15;;;;;;;5.85;4.93;;;17.00;99.90;;;;;;5131907;27;20039;-64
2023/09/06 03:30:41;;;;;;;7.65;5.05;;;17.00;99.90;;;;;;5121065;27;20122;-64
2023/09/06 03:33:08;;;;;;;6.55;5.15;;;17.10;99.90;;;;;;5094873;28;20042;-63
2023/09/06 03:35:34;;;;;;;6.00;5.20;;;17.10;99.90;;;;;;5119889;27;20043;-64
2023/09/06 03:38:00;;;;;;;5.70;5.15;;;17.10;99.90;;;;;;5132639;27;20042;-64
2023/09/06 03:40:27;;;;;;;5.80;5.18;;;17.10;99.90;;;;;;5124521;27;20043;-63
2023/09/06 03:42:54;;;;;;;5.85;4.90;;;17.10;99.90;;;;;;5112750;28;20035;-65
2023/09/06 03:45:21;;;;;;;5.78;5.07;;;17.10;99.90;;;;;;5114900;27;20051;-64
2023/09/06 03:47:54;;;;;;;5.55;5.05;;;17.10;99.90;;;;;;5115156;27;20051;-65
2023/09/06 03:50:27;;;;;;;5.60;5.07;;;17.10;99.90;;;;;;5129234;27;20043;-64
2023/09/06 03:52:53;;;;;;;7.10;5.47;;;17.00;99.90;;;;;;5131312;27;20039;-64
2023/09/06 03:55:19;;;;;;;5.38;4.88;;;17.00;99.90;;;;;;5131241;27;20116;-64
2023/09/06 03:57:46;;;;;;;7.75;5.38;;;17.00;99.90;;;;;;5119323;27;20088;-63
2023/09/06 04:00:26;;;;;;;5.68;5.18;;;17.00;99.90;;;;;;5112760;28;20040;-64
2023/09/06 04:02:54;;;;;;;5.78;5.28;;;17.00;99.90;;;;;;5115276;27;20075;-64
2023/09/06 04:05:25;;;;;;;6.10;5.50;;;17.00;99.90;;;;;;5110895;27;20118;-65
2023/09/06 04:07:59;;;;;;;6.13;5.53;;;17.00;99.90;;;;;;5111498;28;20039;-64
2023/09/06 04:10:35;;;;;;;7.30;5.22;;;17.00;99.90;;;;;;5130796;27;20043;-64
2023/09/06 04:13:01;;;;;;;5.63;5.13;;;17.00;99.90;;;;;;5116343;27;20087;-63
2023/09/06 04:15:27;;;;;;;7.32;5.15;;;17.00;99.90;;;;;;5118879;27;20078;-63
2023/09/06 04:17:58;;;;;;;6.40;5.53;;;17.00;99.90;;;;;;5093921;28;20053;-64
2023/09/06 04:20:30;;;;;;;6.00;5.35;;;17.00;99.90;;;;;;5110772;27;20055;-63
2023/09/06 04:22:57;;;;;;;5.82;5.30;;;17.00;99.90;;;;;;5114363;27;20035;-64
2023/09/06 04:25:24;;;;;;;6.63;5.43;;;17.00;99.90;;;;;;5110776;28;20069;-64
2023/09/06 04:27:59;;;;;;;6.30;5.53;;;17.00;99.90;;;;;;5111180;27;20379;-64
2023/09/06 04:30:32;;;;;;;6.32;5.22;;;17.00;99.90;;;;;;5111191;28;20045;-64
2023/09/06 04:32:57;;;;;;;7.00;5.50;;;17.00;99.90;;;;;;5095244;27;20126;-64
2023/09/06 04:35:33;;;;;;;7.05;5.57;;;17.00;99.90;;;;;;5113148;27;20111;-63
2023/09/06 04:37:59;;;;;;;7.18;5.18;;;17.00;99.90;;;;;;5113310;27;20039;-64
2023/09/06 04:40:25;;;;;;;5.47;4.88;;;17.00;99.90;;;;;;5112904;27;20046;-64
2023/09/06 04:42:51;;;;;;;5.78;5.18;;;16.90;99.90;;;;;;5111802;27;20069;-63
2023/09/06 04:45:38;;;;;;;6.30;5.13;;;16.90;99.90;;;;;;5113721;27;20040;-66
2023/09/06 04:48:11;;;;;;;6.55;5.65;;;16.90;99.90;;;;;;5096057;27;20405;-65
2023/09/06 04:50:44;;;;;;;6.15;5.15;;;16.90;99.90;;;;;;5129354;27;20039;-64
2023/09/06 04:53:19;;;;;;;8.30;5.65;;;16.90;99.90;;;;;;5131444;27;20039;-64
2023/09/06 04:55:47;;;;;;;6.53;5.35;;;16.80;99.90;;;;;;5096932;28;20039;-65
2023/09/06 04:58:19;;;;;;;7.20;5.70;;;16.80;99.90;;;;;;5094115;28;20096;-64
2023/09/06 05:00:47;;;;;;;7.30;5.25;;;16.80;99.90;;;;;;5118621;27;20065;-63
2023/09/06 05:03:17;;;;;;;5.47;4.97;;;16.80;99.90;;;;;;5112604;27;20444;-63
2023/09/06 05:05:45;;;;;;;7.32;5.10;;;16.80;99.90;;;;;;5112527;27;20547;-63
2023/09/06 05:08:11;;;;;;;5.32;4.82;;;16.80;99.90;;;;;;5121353;27;20360;-63
2023/09/06 05:10:37;;;;;;;4.90;4.50;;;16.80;99.90;;;;;;5129223;27;20064;-62
2023/09/06 05:13:07;;;;;;;8.35;4.50;;;16.80;99.90;;;;;;5120368;27;20068;-62
2023/09/06 05:15:37;;;;;;;5.47;4.95;;;16.80;99.90;;;;;;5112336;27;20038;-63
2023/09/06 05:18:04;;;;;;;6.22;5.13;;;16.80;99.90;;;;;;5111954;27;20042;-62
2023/09/06 05:20:35;;;;;;;5.50;5.00;;;16.80;99.90;;;;;;5092154;28;20040;-64
2023/09/06 05:23:04;;;;;;;5.97;4.90;;;16.80;99.90;;;;;;5109606;27;20039;-62
2023/09/06 05:25:31;;;;;;;8.35;5.30;;;16.80;99.90;;;;;;5109366;28;20031;-62
2023/09/06 05:28:02;;;;;;;6.32;4.60;;;16.80;99.90;;;;;;5115500;27;20387;-64
2023/09/06 05:30:27;;;;;;;6.03;4.90;;;16.80;99.90;;;;;;5111126;27;20038;-64
2023/09/06 05:32:54;;;;;;;5.63;4.95;;;16.90;99.90;;;;;;5112182;27;20039;-61
2023/09/06 05:35:20;;;;;;;5.68;4.78;;;16.90;99.90;;;;;;5099017;27;20406;-61
2023/09/06 05:37:45;;;;;;;6.63;4.80;;;17.00;99.90;;;;;;5112105;27;20051;-62
2023/09/06 05:40:12;;;;;;;4.90;4.43;;;17.00;99.90;;;;;;5111617;27;20047;-61
2023/09/06 05:42:39;;;;;;;5.13;4.60;;;17.00;99.90;;;;;;5110769;28;20067;-63
2023/09/06 05:45:06;;;;;;;5.25;4.72;;;17.00;99.90;;;;;;5115083;27;20703;-64
2023/09/06 05:47:33;;;;;;;6.28;4.45;;;17.10;99.90;;;;;;5129832;27;20039;-64
2023/09/06 05:49:58;;;;;;;6.32;4.72;;;17.10;99.90;;;;;;5128178;27;20462;-63
2023/09/06 05:52:24;;;;;;;5.28;4.78;;;17.10;99.90;;;;;;5127699;27;20134;-63
2023/09/06 05:54:50;;;;;;;5.28;4.38;;;17.20;99.90;;;;;;5110516;28;20035;-63
2023/09/06 05:57:16;;;;;;;6.65;4.78;;;17.20;99.90;;;;;;5125565;27;20120;-61
2023/09/06 05:59:41;;;;;;;6.53;4.75;;;17.20;99.90;;;;;;5130705;27;20122;-63
2023/09/06 06:02:08;;;;;;;6.30;4.97;;;17.30;99.90;;;;;;5114644;27;20050;-66
2023/09/06 06:04:34;;;;;;;5.35;4.85;;;17.40;99.90;;;;;;5109039;28;20090;-63
2023/09/06 06:07:00;;;;;;;8.88;5.13;;;17.50;99.90;;;;;;5114872;28;20036;-64
2023/09/06 06:09:25;;;;;;;5.35;4.82;;;17.50;99.90;;;;;;5111219;28;20036;-63
2023/09/06 06:11:54;;;;;;;6.97;5.05;;;17.60;99.90;;;;;;5110739;28;20123;-63
2023/09/06 06:14:20;;;;;;;6.32;4.78;;;17.70;99.90;;;;;;5125316;28;20421;-63
2023/09/06 06:16:46;;;;;;;6.47;5.00;;;17.80;99.90;;;;;;5128197;28;20047;-64
2023/09/06 06:19:12;;;;;;;8.10;5.03;;;17.90;99.90;;;;;;5124779;28;20047;-62
2023/09/06 06:21:39;;;;;;;5.95;4.72;;;18.00;99.90;;;;;;5121886;28;20039;-62
2023/09/06 06:24:08;;;;;;;6.18;4.85;;;18.10;99.90;;;;;;5108545;28;20040;-64
2023/09/06 06:26:34;;;;;;;7.00;4.75;;;18.20;99.90;;;;;;5110179;28;20118;-63
2023/09/06 06:29:00;;;;;;;5.03;4.50;;;18.40;99.90;;;;;;5108672;28;20115;-64
2023/09/06 06:31:25;;;;;;;7.40;4.93;;;18.50;99.90;;;;;;5092211;28;20479;-62
2023/09/06 06:33:53;;;;;;;5.25;4.70;;;18.60;99.90;;;;;;5110354;28;20092;-63
2023/09/06 06:36:19;;;;;;;6.28;4.70;;;18.70;99.90;;;;;;5105808;28;20047;-63
2023/09/06 06:38:46;;;;;;;6.70;5.10;;;18.90;99.90;;;;;;5110323;28;20115;-63
2023/09/06 06:41:22;;;;;;;6.28;4.95;;;19.10;99.90;;;;;;5110001;28;20036;-65
2023/09/06 06:43:48;;;;;;;4.80;4.30;;;19.20;99.90;;;;;;5108554;28;20510;-65
2023/09/06 06:46:30;;;;;;;6.30;4.53;;;19.40;99.90;;;;;;5109430;27;20050;-63
2023/09/06 06:48:57;;;;;;;7.38;4.65;;;19.60;99.90;;;;;;5112913;28;20045;-64
2023/09/06 06:51:35;;;;;;;4.40;4.00;;;19.70;99.90;;;;;;5095622;27;20071;-62
2023/09/06 06:54:02;;;;;;;4.47;4.00;;;19.90;99.90;;;;;;5112811;28;20055;-63
2023/09/06 06:56:27;;;;;;;6.28;4.60;;;20.00;99.90;;;;;;5112527;28;20489;-65
2023/09/06 06:58:53;;;;;;;5.18;4.32;;;20.10;99.90;;;;;;5111555;28;20032;-63
2023/09/06 07:01:20;;;;;;;5.82;3.70;;;20.30;99.90;;;;;;5112415;28;20490;-63
2023/09/06 07:03:46;;;;;;;4.80;4.18;;;20.40;99.90;;;;;;5112632;28;20043;-64
2023/09/06 07:06:12;;;;;;;5.00;4.50;;;20.50;99.90;;;;;;5113770;28;20041;-64
2023/09/06 07:08:37;;;;;;;5.25;4.20;;;20.60;99.90;;;;;;5110200;28;20040;-64
2023/09/06 07:11:04;;;;;;;5.57;4.00;;;20.70;99.90;;;;;;5113673;28;20497;-64
2023/09/06 07:13:31;;;;;;;5.35;4.22;;;20.80;99.90;;;;;;5112295;28;20070;-65
2023/09/06 07:15:56;;;;;;;6.40;4.15;;;20.90;99.90;;;;;;5113926;28;20547;-62
2023/09/06 07:18:22;;;;;;;5.30;4.18;;;21.00;99.90;;;;;;5110928;28;20031;-63
2023/09/06 07:20:48;;;;;;;6.18;4.07;;;21.10;99.90;;;;;;5142521;27;20429;-63
2023/09/06 07:23:13;;;;;;;4.18;3.78;;;21.10;99.90;;;;;;5135752;27;20397;-65
2023/09/06 07:25:44;;;;;;;4.97;3.90;;;21.20;99.90;;;;;;5154390;27;20090;-64
2023/09/06 07:28:10;;;;;;;5.47;3.70;;;21.40;99.90;;;;;;5135676;27;20035;-63
2023/09/06 07:30:35;;;;;;;4.38;3.97;;;21.50;99.90;;;;;;5135226;27;20087;-63
2023/09/06 07:33:01;;;;;;;4.15;3.75;;;21.60;99.90;;;;;;5115401;27;20046;-65
2023/09/06 07:35:27;;;;;;;6.50;3.88;;;21.70;99.90;;;;;;5141768;27;20043;-63
2023/09/06 07:37:53;;;;;;;3.97;3.55;;;21.90;99.90;;;;;;5116587;27;20055;-64
2023/09/06 07:40:19;;;;;;;3.83;3.30;;;22.00;99.90;;;;;;5119489;27;20043;-65
2023/09/06 07:42:45;;;;;;;4.03;3.28;;;22.10;99.90;;;;;;5117286;27;20035;-63
2023/09/06 07:45:11;;;;;;;6.43;3.80;;;22.20;99.90;;;;;;5114980;27;20382;-63
2023/09/06 07:47:37;;;;;;;4.07;3.65;;;22.30;99.90;;;;;;5114888;27;20046;-64
2023/09/06 07:50:05;;;;;;;4.25;3.85;;;22.40;99.90;;;;;;5116735;27;20028;-62
2023/09/06 07:52:30;;;;;;;4.18;3.45;;;22.50;99.90;;;;;;5124313;27;20121;-63
2023/09/06 07:54:58;;;;;;;5.45;3.67;;;22.60;99.90;;;;;;5141772;27;20677;-64
2023/09/06 07:57:24;;;;;;;4.28;3.35;;;22.80;99.90;;;;;;5114471;27;20062;-63
2023/09/06 07:59:49;;;;;;;4.55;3.35;;;22.80;99.90;;;;;;5114758;27;20085;-62
2023/09/06 08:02:15;;;;;;;4.57;3.33;;;23.00;99.90;;;;;;5116816;27;20134;-63
2023/09/06 08:04:41;;;;;;;6.15;3.70;;;23.10;99.90;;;;;;5114429;27;20059;-64
2023/09/06 08:07:08;;;;;;;5.68;3.92;;;23.30;99.90;;;;;;5114635;27;20043;-63
2023/09/06 08:09:34;;;;;;;4.55;3.15;;;23.40;99.90;;;;;;5114308;27;20576;-64
2023/09/06 08:12:00;;;;;;;6.05;3.45;;;23.50;99.90;;;;;;5118245;27;20123;-65
2023/09/06 08:14:25;;;;;;;6.25;3.03;;;23.60;99.90;;;;;;5114715;27;20485;-65
2023/09/06 08:16:51;;;;;;;4.55;3.38;;;23.70;99.90;;;;;;5113854;27;20057;-63
2023/09/06 08:19:17;;;;;;;5.07;3.40;;;23.70;99.90;;;;;;5132608;27;20087;-62
2023/09/06 08:21:42;;;;;;;4.32;3.03;;;23.80;99.90;;;;;;5115173;27;20447;-62
2023/09/06 08:24:08;;;;;;;6.90;3.00;;;24.00;99.90;;;;;;5134890;27;20411;-64
2023/09/06 08:26:36;;;;;;;4.57;3.08;;;24.10;99.90;;;;;;5137665;27;20490;-63
2023/09/06 08:29:02;;;;;;;4.35;2.63;;;24.10;99.90;;;;;;5114533;27;20393;-63
2023/09/06 08:31:28;;;;;;;3.75;3.00;;;24.30;99.90;;;;;;5117383;27;20085;-64
2023/09/06 08:33:53;;;;;;;5.30;3.05;;;24.40;99.90;;;;;;5128303;27;20847;-63
2023/09/06 08:36:19;;;;;;;3.78;2.88;;;24.50;99.90;;;;;;5124032;27;20075;-63
2023/09/06 08:38:44;;;;;;;3.72;2.70;;;24.60;99.90;;;;;;5114549;27;20042;-64
2023/09/06 08:41:10;;;;;;;5.47;2.75;;;24.80;99.90;;;;;;5132751;27;20051;-65
2023/09/06 08:43:43;;;;;;;4.45;3.20;;;24.90;99.90;;;;;;5101658;27;20520;-64
2023/09/06 08:46:18;;;;;;;4.22;2.75;;;24.90;99.90;;;;;;5126052;27;20080;-63
2023/09/06 08:48:45;;;;;;;3.10;2.60;;;24.90;99.90;;;;;;5101636;27;20035;-63
2023/09/06 08:51:11;;;;;;;2.83;2.50;;;25.00;99.90;;;;;;5118439;27;20035;-64
2023/09/06 08:53:43;;;;;;;5.28;2.75;;;25.10;99.90;;;;;;5118997;27;20410;-64
2023/09/06 08:56:10;;;;;;;3.30;2.53;;;25.30;99.90;;;;;;5108562;27;20044;-63
2023/09/06 08:58:35;;;;;;;3.85;2.90;;;25.40;99.90;;;;;;5113866;27;20099;-64
2023/09/06 09:01:04;;;;;;;4.28;2.47;;;25.50;99.90;;;;;;5113351;27;20059;-63
2023/09/06 09:03:31;;;;;;;4.40;3.00;;;25.70;99.90;;;;;;5134980;27;20435;-64
2023/09/06 09:06:01;;;;;;;4.30;2.65;;;25.90;99.90;;;;;;5115526;27;20050;-63
2023/09/06 09:08:30;;;;;;;4.40;2.70;;;25.90;99.90;;;;;;5132093;27;20114;-62
2023/09/06 09:11:18;;;;;;;4.13;2.70;;;26.00;99.90;;;;;;5096054;27;20410;-62
2023/09/06 09:13:45;;;;;;;5.90;2.53;;;26.00;99.70;;;;;;5113571;27;20395;-63
2023/09/06 09:16:16;;;;;;;4.55;2.70;;;26.10;99.90;;;;;;5113426;27;20051;-63
2023/09/06 09:18:44;;;;;;;3.47;2.63;;;26.10;99.20;;;;;;5115918;27;20077;-63
2023/09/06 09:21:12;;;;;;;3.33;2.50;;;26.10;98.60;;;;;;5152306;27;20073;-61
2023/09/06 09:23:46;;;;;;;3.75;2.42;;;26.20;99.50;;;;;;5116863;27;20046;-63
2023/09/06 09:26:12;;;;;;;4.35;2.50;;;26.40;98.00;;;;;;5152588;27;20134;-63
2023/09/06 09:28:41;;;;;;;5.50;2.70;;;26.50;98.10;;;;;;5152524;27;20059;-63
2023/09/06 09:31:13;;;;;;;6.60;2.50;;;26.50;97.50;;;;;;5139547;27;20083;-62
2023/09/06 09:33:39;;;;;;;5.40;2.40;;;26.70;98.40;;;;;;5113965;27;20051;-63
2023/09/06 09:36:06;;;;;;;6.93;2.78;;;26.90;98.50;;;;;;5131587;27;20402;-63
2023/09/06 09:38:31;;;;;;;3.03;2.63;;;27.00;97.90;;;;;;5113123;27;20059;-63
2023/09/06 09:41:08;;;;;;;3.58;2.67;;;27.20;97.80;;;;;;5116257;27;20070;-63
2023/09/06 09:43:35;;;;;;;5.60;2.70;;;27.30;96.70;;;;;;5113572;27;20489;-63
2023/09/06 09:46:01;;;;;;;4.70;2.22;;;27.40;96.40;;;;;;5113075;27;20397;-63
2023/09/06 09:48:30;;;;;;;4.28;2.40;;;27.50;96.90;;;;;;5113170;27;20039;-63
2023/09/06 09:50:56;;;;;;;4.47;2.88;;;27.70;96.70;;;;;;5118413;27;20035;-65
2023/09/06 09:53:23;;;;;;;4.63;2.70;;;27.90;96.80;;;;;;5132925;27;20102;-63
2023/09/06 09:55:52;;;;;;;4.60;2.70;;;28.10;96.80;;;;;;5133754;27;20045;-63
2023/09/06 09:58:19;;;;;;;3.55;2.58;;;28.30;96.50;;;;;;5152127;27;20037;-64
2023/09/06 10:00:45;;;;;;;3.78;2.67;;;28.50;96.80;;;;;;5152198;27;20023;-63
2023/09/06 10:03:11;;;;;;;3.70;2.65;;;28.50;95.50;;;;;;5115580;27;20502;-65
2023/09/06 10:05:38;;;;;;;3.25;2.47;;;28.60;95.50;;;;;;5112836;27;20059;-63
2023/09/06 10:08:08;;;;;;;6.90;2.88;;;28.50;93.60;;;;;;5131292;27;20393;-63
2023/09/06 10:10:42;;;;;;;6.10;2.90;;;28.50;93.40;;;;;;5095427;27;20154;-62
2023/09/06 10:13:07;;;;;;;4.47;2.20;;;28.40;93.50;;;;;;5125896;27;20046;-63
2023/09/06 10:15:35;;;;;;;3.08;2.30;;;28.60;94.30;;;;;;5112493;27;20043;-63
2023/09/06 10:18:00;;;;;;;4.65;2.75;;;28.70;93.70;;;;;;5095969;27;20047;-63
2023/09/06 10:20:30;;;;;;;4.88;2.55;;;28.80;93.70;;;;;;5114471;27;20100;-64
2023/09/06 10:22:57;;;;;;;2.90;2.13;;;28.90;93.70;;;;;;5122577;27;20049;-62
2023/09/06 10:25:25;;;;;;;6.07;2.78;;;29.10;93.50;;;;;;5116801;27;20043;-64
2023/09/06 10:27:59;;;;;;;3.65;2.53;;;29.20;92.20;;;;;;5116721;27;20031;-63
2023/09/06 10:30:42;;;;;;;5.00;2.33;;;29.20;91.50;;;;;;5116517;27;20050;-63
2023/09/06 10:33:08;;;;;;;3.75;2.47;;;29.30;91.70;;;;;;5119061;27;20070;-63
2023/09/06 10:35:41;;;;;;;4.65;3.15;;;29.40;91.80;;;;;;5137305;27;20488;-64
2023/09/06 10:38:15;;;;;;;5.00;2.60;;;29.50;91.50;;;;;;5137426;27;20099;-62
2023/09/06 10:40:50;;;;;;;3.25;2.45;;;29.70;91.20;;;;;;5137239;27;20034;-64
2023/09/06 10:43:28;;;;;;;3.85;2.42;;;29.80;91.10;;;;;;5137129;27;20133;-63
2023/09/06 10:45:58;;;;;;;4.00;2.80;;;30.10;91.40;;;;;;5119420;27;20039;-64
2023/09/06 10:48:24;;;;;;;2.78;2.30;;;30.20;90.50;;;;;;5137005;27;20362;-62
2023/09/06 10:51:09;;;;;;;5.55;2.63;;;30.20;89.60;;;;;;5155653;27;20040;-65
2023/09/06 10:53:40;;;;;;;2.28;2.08;;;30.30;88.80;;;;;;5136610;27;20077;-64
2023/09/06 10:56:06;;;;;;;3.50;2.53;;;30.40;90.00;;;;;;5122139;27;20076;-62
2023/09/06 10:58:36;;;;;;;3.40;2.15;;;30.30;86.70;;;;;;5134345;27;20126;-63
2023/09/06 11:01:17;;;;;;;3.65;2.03;;;30.20;86.70;;;;;;5136002;27;20045;-63
2023/09/06 11:03:54;;;;;;;3.95;2.10;;;30.20;86.00;;;;;;5127359;27;20110;-64
2023/09/06 11:06:22;;;;;;;6.13;2.20;;;30.40;87.20;;;;;;5127702;27;20117;-64
2023/09/06 11:08:49;;;;;;;4.18;2.20;;;30.50;86.50;;;;;;5143789;27;20390;-62
2023/09/06 11:11:15;;;;;;;3.75;2.40;;;30.50;87.20;;;;;;5142336;27;20037;-64
2023/09/06 11:13:42;;;;;;;4.18;2.38;;;30.50;85.60;;;;;;5124892;27;20118;-63
2023/09/06 11:16:18;;;;;;;3.30;2.10;;;30.50;85.20;;;;;;5128688;27;20077;-63
2023/09/06 11:18:50;;;;;;;5.93;2.38;;;30.60;86.30;;;;;;5149901;27;20706;-63
2023/09/06 11:21:25;;;;;;;3.03;1.80;;;30.60;84.90;;;;;;5106050;27;20543;-64
2023/09/06 11:23:52;;;;;;;3.85;2.10;;;30.70;86.30;;;;;;5135950;27;20370;-63
2023/09/06 11:26:19;;;;;;;2.35;2.10;;;30.80;86.20;;;;;;5111877;27;20486;-63
2023/09/06 11:28:47;;;;;;;4.22;2.30;;;30.80;85.20;;;;;;5124724;27;20053;-63
2023/09/06 11:31:30;;;;;;;3.63;2.05;;;30.90;85.70;;;;;;5135384;27;20450;-64
2023/09/06 11:34:04;;;;;;;2.25;1.98;;;31.00;84.20;;;;;;5134155;27;20542;-63
2023/09/06 11:36:32;;;;;;;2.97;2.20;;;30.90;85.40;;;;;;5136517;27;20030;-63
2023/09/06 11:39:15;;;;;;;2.70;2.25;;;31.00;83.90;;;;;;5136061;27;20046;-64
2023/09/06 11:41:43;;;;;;;2.63;2.20;;;31.00;83.30;;;;;;5135633;27;20117;-64
2023/09/06 11:44:11;;;;;;;2.58;1.73;;;30.90;82.70;;;;;;5129950;27;20442;-64
2023/09/06 11:46:38;;;;;;;4.95;2.00;;;31.00;83.90;;;;;;5133521;27;20043;-64
2023/09/06 11:49:06;;;;;;;3.33;2.00;;;31.00;83.50;;;;;;5133513;27;20043;-64
2023/09/06 11:51:33;;;;;;;3.35;2.00;;;30.90;83.00;;;;;;5115417;27;20043;-64
2023/09/06 11:54:00;;;;;;;3.35;1.98;;;30.90;82.60;;;;;;5116036;27;20092;-62
2023/09/06 11:56:36;;;;;;;2.83;1.83;;;30.80;82.40;;;;;;5135214;27;20578;-63
2023/09/06 11:59:06;;;;;;;3.45;2.08;;;30.60;82.60;;;;;;5154169;27;20097;-63
2023/09/06 12:01:39;;;;;;;2.67;2.00;;;30.50;83.60;;;;;;5135531;27;20064;-64
2023/09/06 12:04:10;;;;;;;3.08;1.92;;;30.30;83.50;;;;;;5135585;27;20505;-64
2023/09/06 12:06:39;;;;;;;2.35;1.67;;;30.20;82.80;;;;;;5119696;27;20074;-63
2023/09/06 12:09:11;;;;;;;3.70;2.00;;;30.00;83.10;;;;;;5133276;27;20486;-64
2023/09/06 12:11:40;;;;;;;3.83;1.90;;;29.90;82.50;;;;;;5133469;27;20039;-65
2023/09/06 12:14:09;;;;;;;3.30;2.20;;;29.80;83.40;;;;;;5114612;27;20042;-62
2023/09/06 12:16:36;;;;;;;2.75;1.90;;;29.70;84.60;;;;;;5126676;27;20106;-63
2023/09/06 12:19:03;;;;;;;2.50;1.67;;;29.70;84.10;;;;;;5117625;27;20047;-64
2023/09/06 12:21:28;;;;;;;2.38;1.92;;;29.60;83.60;;;;;;5117641;27;20038;-62
2023/09/06 12:23:54;;;;;;;3.75;1.90;;;29.50;83.50;;;;;;5134346;27;20549;-63
2023/09/06 12:26:20;;;;;;;2.55;1.92;;;29.50;84.20;;;;;;5150582;27;20054;-64
2023/09/06 12:28:47;;;;;;;2.80;1.75;;;29.50;84.50;;;;;;5096949;27;20051;-64
2023/09/06 12:31:14;;;;;;;3.97;1.70;;;29.40;83.90;;;;;;5133284;27;20039;-63
2023/09/06 12:33:40;;;;;;;3.63;1.85;;;29.40;84.60;;;;;;5114535;27;20073;-63
2023/09/06 12:36:08;;;;;;;3.50;1.83;;;29.30;84.90;;;;;;5114743;27;20112;-64
2023/09/06 12:38:33;;;;;;;3.97;1.70;;;29.30;84.60;;;;;;5132330;27;20079;-64
2023/09/06 12:41:00;;;;;;;3.33;1.83;;;29.30;85.10;;;;;;5135073;27;20080;-63
2023/09/06 12:43:26;;;;;;;2.42;1.60;;;29.30;85.30;;;;;;5134378;27;20088;-62
2023/09/06 12:45:53;;;;;;;3.00;1.90;;;29.20;84.70;;;;;;5153394;27;20046;-63
2023/09/06 12:48:23;;;;;;;2.15;1.60;;;29.20;85.10;;;;;;5134324;27;20038;-62
2023/09/06 12:50:50;;;;;;;3.17;1.80;;;29.20;84.90;;;;;;5134880;27;20155;-63
2023/09/06 12:53:16;;;;;;;3.15;1.90;;;29.10;84.10;;;;;;5153410;27;20051;-63